Time;durP1;ratioP1;P1;durP2;ratioP2;P2;SDS_P1;SDS_P2;PMS_P1;PMS_P2;Temp;Humidity;BMP_temperature;BMP_pressure;BME280_temperature;BME280_humidity;BME280_pressure;Samples;Min_cycle;Max_cycle;Signal;HPM_P1;HPM_P2
2022/07/27 00:01:07;;;;;;;0.55;0.40;;;19.10;95.10;19.20;100587.00;;;;4950957;28;89177;-62
2022/07/27 00:03:33;;;;;;;3.13;0.40;;;19.00;95.00;19.20;100596.00;;;;4956070;28;87570;-62
2022/07/27 00:05:58;;;;;;;0.52;0.40;;;19.10;95.00;19.20;100592.00;;;;4955436;28;116162;-62
2022/07/27 00:08:24;;;;;;;0.70;0.55;;;19.10;94.80;19.20;100598.00;;;;4955460;28;112815;-62
2022/07/27 00:10:51;;;;;;;0.32;0.30;;;19.10;94.70;19.20;100595.00;;;;4955410;28;92106;-62
2022/07/27 00:13:17;;;;;;;0.50;0.43;;;19.10;94.50;19.20;100606.00;;;;4956171;28;100695;-61
2022/07/27 00:15:42;;;;;;;0.40;0.40;;;19.10;94.50;19.20;100594.00;;;;4956216;28;89380;-61
2022/07/27 00:18:08;;;;;;;0.35;0.30;;;19.10;94.50;19.20;100597.00;;;;4956279;28;108032;-62
2022/07/27 00:20:34;;;;;;;0.60;0.60;;;19.00;94.50;19.20;100603.00;;;;4955028;28;111035;-62
2022/07/27 00:23:00;;;;;;;0.80;0.60;;;19.00;94.30;19.10;100609.00;;;;4956477;28;87573;-62
2022/07/27 00:25:26;;;;;;;2.15;0.65;;;19.00;94.20;19.10;100603.00;;;;4954417;28;117052;-62
2022/07/27 00:27:52;;;;;;;0.43;0.30;;;19.00;93.90;19.10;100611.00;;;;4955914;28;88034;-61
2022/07/27 00:30:18;;;;;;;0.38;0.38;;;19.00;93.40;19.10;100615.00;;;;4955567;28;87837;-62
2022/07/27 00:32:45;;;;;;;1.02;0.22;;;18.90;93.00;19.10;100616.00;;;;4956052;28;97648;-62
2022/07/27 00:35:12;;;;;;;0.63;0.60;;;18.90;92.70;19.10;100618.00;;;;4954979;28;117210;-62
2022/07/27 00:37:38;;;;;;;4.45;0.93;;;18.90;92.20;19.10;100618.00;;;;4955798;28;89015;-61
2022/07/27 00:40:06;;;;;;;0.28;0.28;;;18.90;91.50;19.10;100617.00;;;;4954781;28;87896;-61
2022/07/27 00:42:32;;;;;;;0.68;0.47;;;18.90;90.80;19.10;100628.00;;;;4956452;28;86968;-62
2022/07/27 00:44:58;;;;;;;2.13;0.30;;;18.90;90.20;19.10;100626.00;;;;4956454;28;88745;-62
2022/07/27 00:47:26;;;;;;;0.70;0.52;;;18.90;89.50;19.10;100627.00;;;;4956091;28;88761;-61
2022/07/27 00:49:52;;;;;;;0.20;0.20;;;18.90;88.60;19.10;100625.00;;;;4955474;28;89232;-61
2022/07/27 00:52:18;;;;;;;0.65;0.50;;;18.90;87.90;19.10;100623.00;;;;4954606;28;101629;-62
2022/07/27 00:54:44;;;;;;;0.63;0.28;;;18.90;87.10;19.10;100631.00;;;;4955589;28;87778;-61
2022/07/27 00:57:12;;;;;;;0.63;0.52;;;18.90;86.40;19.10;100636.00;;;;4955923;28;88680;-61
2022/07/27 00:59:39;;;;;;;0.50;0.40;;;18.90;85.80;19.10;100631.00;;;;4956267;28;87822;-62
2022/07/27 01:02:06;;;;;;;1.38;0.65;;;18.90;84.90;19.00;100634.00;;;;4955080;28;87765;-62
2022/07/27 01:04:35;;;;;;;0.20;0.20;;;18.80;83.80;19.00;100631.00;;;;4955496;28;89208;-61
2022/07/27 01:07:04;;;;;;;0.80;0.70;;;18.80;82.80;19.00;100638.00;;;;4955362;28;115764;-62
2022/07/27 01:12:16;;;;;;;0.35;0.35;;;18.80;82.20;19.00;100644.00;;;;4953831;28;87556;-61
2022/07/27 01:14:42;;;;;;;0.65;0.55;;;18.80;81.80;19.00;100643.00;;;;4936811;28;88860;-61
2022/07/27 01:17:08;;;;;;;1.27;0.60;;;18.80;81.40;18.90;100638.00;;;;4954960;28;101004;-62
2022/07/27 01:19:35;;;;;;;1.52;0.47;;;18.80;81.20;19.00;100635.00;;;;4955923;28;87732;-61
2022/07/27 01:22:05;;;;;;;0.38;0.30;;;18.80;80.80;19.00;100640.00;;;;4954471;28;108938;-61
2022/07/27 01:24:31;;;;;;;1.13;1.02;;;18.80;80.50;19.00;100639.00;;;;4956180;28;87942;-62
2022/07/27 01:27:00;;;;;;;0.98;0.40;;;18.80;80.30;19.00;100644.00;;;;4954630;28;102735;-62
2022/07/27 01:29:26;;;;;;;0.70;0.60;;;18.80;80.20;19.00;100646.00;;;;4955146;28;87921;-62
2022/07/27 01:31:52;;;;;;;0.13;0.10;;;18.80;80.20;19.00;100651.00;;;;4955184;28;95509;-61
2022/07/27 01:34:18;;;;;;;0.30;0.30;;;18.80;79.80;19.00;100652.00;;;;4954969;28;116058;-61
2022/07/27 01:36:44;;;;;;;1.02;0.63;;;18.80;79.50;19.00;100655.00;;;;4954152;28;114201;-62
2022/07/27 01:39:15;;;;;;;0.85;0.60;;;18.80;79.10;18.90;100657.00;;;;4954456;28;88923;-62
2022/07/27 01:41:41;;;;;;;1.58;0.70;;;18.80;78.80;18.90;100656.00;;;;4954546;28;87572;-62
2022/07/27 01:44:07;;;;;;;1.75;0.82;;;18.80;78.50;18.90;100651.00;;;;4955149;28;87997;-62
2022/07/27 01:46:33;;;;;;;0.60;0.32;;;18.80;78.40;18.90;100654.00;;;;4954812;28;90534;-63
2022/07/27 01:48:58;;;;;;;0.70;0.40;;;18.70;77.60;18.90;100646.00;;;;4954728;28;110789;-62
2022/07/27 01:51:24;;;;;;;0.95;0.20;;;18.70;77.00;18.80;100656.00;;;;4954449;28;92655;-61
2022/07/27 01:53:50;;;;;;;0.20;0.20;;;18.70;76.80;18.80;100655.00;;;;4954581;28;97834;-62
2022/07/27 01:56:15;;;;;;;0.47;0.28;;;18.70;76.40;18.80;100651.00;;;;4954484;28;117645;-61
2022/07/27 01:58:42;;;;;;;0.55;0.50;;;18.60;75.90;18.80;100647.00;;;;4953802;28;109729;-61
2022/07/27 02:01:08;;;;;;;0.40;0.40;;;18.60;75.60;18.70;100647.00;;;;4954230;28;96060;-62
2022/07/27 02:03:35;;;;;;;1.27;0.55;;;18.60;75.30;18.70;100647.00;;;;4956522;28;117967;-62
2022/07/27 02:06:01;;;;;;;1.17;0.52;;;18.50;75.20;18.70;100651.00;;;;4954426;28;97997;-62
2022/07/27 02:08:27;;;;;;;1.48;0.90;;;18.60;75.10;18.70;100653.00;;;;4954847;28;90327;-62
2022/07/27 02:13:38;;;;;;;0.73;0.40;;;18.50;74.60;18.60;100645.00;;;;4954686;28;88525;-62
2022/07/27 02:16:04;;;;;;;0.93;0.47;;;18.50;74.40;18.60;100651.00;;;;4953025;28;119058;-62
2022/07/27 02:18:29;;;;;;;0.65;0.50;;;18.40;74.20;18.60;100658.00;;;;4954448;28;100515;-62
2022/07/27 02:20:55;;;;;;;2.13;0.52;;;18.40;74.20;18.60;100655.00;;;;4954027;28;108512;-62
2022/07/27 02:23:21;;;;;;;0.63;0.52;;;18.50;74.20;18.60;100657.00;;;;4954093;28;117924;-62
2022/07/27 02:25:47;;;;;;;0.40;0.40;;;18.40;74.00;18.50;100655.00;;;;4953983;28;89057;-62
2022/07/27 02:28:12;;;;;;;0.70;0.30;;;18.40;73.70;18.50;100655.00;;;;4953189;28;93674;-62
2022/07/27 02:30:38;;;;;;;0.63;0.40;;;18.40;73.60;18.50;100660.00;;;;4954685;28;87725;-61
2022/07/27 02:33:05;;;;;;;0.63;0.40;;;18.40;73.30;18.50;100660.00;;;;4953676;28;117672;-62
2022/07/27 02:35:30;;;;;;;0.80;0.38;;;18.30;73.10;18.40;100650.00;;;;4954315;28;88018;-62
2022/07/27 02:37:56;;;;;;;1.00;0.40;;;18.30;73.00;18.40;100657.00;;;;4954295;28;93228;-62
2022/07/27 02:40:22;;;;;;;3.15;0.63;;;18.20;72.80;18.30;100660.00;;;;4953748;28;92800;-63
2022/07/27 02:42:48;;;;;;;0.80;0.38;;;18.20;72.70;18.30;100665.00;;;;4969278;28;88941;-62
2022/07/27 02:45:14;;;;;;;1.23;0.60;;;18.20;72.70;18.30;100661.00;;;;4954098;28;118570;-62
2022/07/27 02:47:41;;;;;;;2.17;0.50;;;18.10;72.60;18.30;100660.00;;;;4954518;28;87947;-62
2022/07/27 02:50:08;;;;;;;0.75;0.75;;;18.10;72.60;18.20;100660.00;;;;4954014;28;87664;-62
2022/07/27 02:52:36;;;;;;;1.70;0.80;;;18.10;72.60;18.20;100662.00;;;;4954146;28;88903;-61
2022/07/27 02:55:02;;;;;;;0.60;0.40;;;18.10;72.60;18.20;100667.00;;;;4953844;28;105530;-61
2022/07/27 02:57:28;;;;;;;0.60;0.60;;;18.10;72.70;18.20;100671.00;;;;4954525;28;87582;-61
2022/07/27 02:59:54;;;;;;;1.90;0.90;;;18.10;72.90;18.20;100663.00;;;;4954822;28;88066;-61
2022/07/27 03:02:20;;;;;;;1.67;0.70;;;18.10;73.00;18.20;100664.00;;;;4953026;28;117924;-61
2022/07/27 03:04:45;;;;;;;0.65;0.57;;;18.10;73.10;18.20;100659.00;;;;4953991;28;88668;-61
2022/07/27 03:07:11;;;;;;;0.52;0.43;;;17.90;73.00;18.20;100649.00;;;;4953872;28;95853;-61
2022/07/27 03:09:37;;;;;;;1.95;0.45;;;18.10;73.10;18.20;100660.00;;;;4954754;28;87233;-61
2022/07/27 03:12:03;;;;;;;1.38;0.52;;;18.10;73.20;18.20;100660.00;;;;4953606;28;103862;-61
2022/07/27 03:14:28;;;;;;;1.67;0.50;;;18.10;73.00;18.10;100659.00;;;;4953209;28;117123;-62
2022/07/27 03:16:54;;;;;;;1.25;0.55;;;18.00;72.50;18.10;100662.00;;;;4952784;28;105820;-61
2022/07/27 03:19:20;;;;;;;0.40;0.40;;;18.00;72.20;18.00;100667.00;;;;4956053;28;109159;-62
2022/07/27 03:21:45;;;;;;;0.40;0.40;;;17.90;72.20;18.00;100685.00;;;;4957075;28;88546;-63
2022/07/27 03:24:11;;;;;;;0.30;0.30;;;17.90;72.40;18.00;100685.00;;;;4956987;28;88664;-62
2022/07/27 03:26:37;;;;;;;0.75;0.55;;;17.90;72.40;18.00;100692.00;;;;4957218;28;98557;-63
2022/07/27 03:29:03;;;;;;;0.40;0.40;;;17.90;72.50;18.00;100693.00;;;;4938236;28;87730;-61
2022/07/27 03:31:28;;;;;;;2.72;0.60;;;17.90;72.40;18.00;100697.00;;;;4955730;28;117640;-62
2022/07/27 03:33:54;;;;;;;1.55;0.30;;;17.90;72.40;18.00;100689.00;;;;4956480;28;108754;-62
2022/07/27 03:36:21;;;;;;;2.33;0.88;;;17.90;72.40;18.00;100691.00;;;;4956920;28;87733;-61
2022/07/27 03:38:46;;;;;;;2.83;0.90;;;17.80;72.30;18.00;100683.00;;;;4956517;28;101855;-61
2022/07/27 03:41:12;;;;;;;0.47;0.30;;;17.80;72.30;17.90;100676.00;;;;4956093;28;117990;-61
2022/07/27 03:43:38;;;;;;;0.82;0.77;;;17.80;72.40;17.90;100680.00;;;;4956765;28;98403;-61
2022/07/27 03:46:04;;;;;;;0.57;0.52;;;17.80;72.40;17.90;100681.00;;;;4956459;28;110658;-61
2022/07/27 03:48:29;;;;;;;0.73;0.73;;;17.80;72.40;17.90;100674.00;;;;4938732;28;88347;-61
2022/07/27 03:50:55;;;;;;;1.13;0.30;;;17.90;72.60;17.90;100672.00;;;;4955219;28;118064;-61
2022/07/27 03:53:21;;;;;;;3.05;0.73;;;17.70;73.30;17.90;100686.00;;;;4956296;28;118140;-61
2022/07/27 03:55:48;;;;;;;1.48;0.50;;;17.70;72.60;17.90;100682.00;;;;4956689;28;87885;-61
2022/07/27 03:58:13;;;;;;;4.97;0.70;;;17.70;72.50;17.90;100686.00;;;;4955976;28;90779;-61
2022/07/27 04:00:39;;;;;;;0.57;0.55;;;17.70;72.40;17.90;100681.00;;;;4956311;28;87899;-62
2022/07/27 04:03:05;;;;;;;3.25;0.73;;;17.70;72.40;17.80;100676.00;;;;4955547;28;117946;-62
2022/07/27 04:05:30;;;;;;;1.00;0.63;;;17.70;72.20;17.80;100674.00;;;;4956837;28;88747;-63
2022/07/27 04:07:57;;;;;;;10.27;0.60;;;17.70;72.10;17.80;100669.00;;;;4957399;28;87809;-63
2022/07/27 04:10:24;;;;;;;0.75;0.65;;;17.70;72.00;17.80;100671.00;;;;4956464;28;91827;-63
2022/07/27 04:12:50;;;;;;;0.38;0.38;;;17.60;71.70;17.80;100669.00;;;;4957293;28;87836;-63
2022/07/27 04:15:17;;;;;;;0.60;0.25;;;17.60;71.50;17.80;100670.00;;;;4955862;28;111116;-63
2022/07/27 04:17:47;;;;;;;1.35;0.95;;;17.60;71.50;17.80;100668.00;;;;4956993;28;87415;-62
2022/07/27 04:20:13;;;;;;;10.85;0.47;;;17.60;71.30;17.70;100671.00;;;;4955726;28;88709;-61
2022/07/27 04:22:39;;;;;;;3.05;0.50;;;17.60;71.20;17.70;100660.00;;;;4955875;28;117740;-62
2022/07/27 04:25:06;;;;;;;0.25;0.25;;;17.60;71.00;17.70;100677.00;;;;4955286;28;110526;-62
2022/07/27 04:27:31;;;;;;;0.20;0.20;;;17.50;70.60;17.70;100676.00;;;;4955081;28;96942;-61
2022/07/27 04:29:57;;;;;;;0.40;0.30;;;17.50;70.60;17.60;100668.00;;;;4954504;28;104962;-62
2022/07/27 04:32:23;;;;;;;0.55;0.50;;;17.50;70.50;17.60;100671.00;;;;4955165;28;118214;-62
2022/07/27 04:34:49;;;;;;;1.10;0.47;;;17.50;70.40;17.60;100664.00;;;;4956037;28;87826;-62
2022/07/27 04:37:14;;;;;;;0.43;0.38;;;17.50;70.20;17.60;100669.00;;;;4956721;28;87914;-61
2022/07/27 04:39:40;;;;;;;0.45;0.30;;;17.50;70.30;17.60;100664.00;;;;4956686;28;98795;-62
2022/07/27 04:42:07;;;;;;;1.38;0.60;;;17.50;70.40;17.60;100667.00;;;;4955312;28;88470;-61
2022/07/27 04:44:33;;;;;;;0.57;0.30;;;17.50;70.40;17.60;100677.00;;;;4957039;28;88313;-61
2022/07/27 04:46:58;;;;;;;2.83;0.63;;;17.50;70.40;17.60;100683.00;;;;4957325;28;87021;-59
2022/07/27 04:49:24;;;;;;;1.27;0.40;;;17.50;70.40;17.70;100698.00;;;;4957023;28;87751;-61
2022/07/27 04:51:50;;;;;;;0.68;0.52;;;17.50;70.40;17.70;100703.00;;;;4954871;28;117675;-62
2022/07/27 04:54:16;;;;;;;0.60;0.50;;;17.50;70.40;17.70;100699.00;;;;4955224;28;109397;-62
2022/07/27 04:56:41;;;;;;;4.97;0.65;;;17.50;70.50;17.80;100705.00;;;;4955648;28;108245;-61
2022/07/27 04:59:07;;;;;;;0.47;0.43;;;17.60;70.50;17.80;100700.00;;;;4955741;28;101257;-60
2022/07/27 05:01:33;;;;;;;1.33;0.60;;;17.60;70.50;17.80;100706.00;;;;4954793;28;112166;-60
2022/07/27 05:03:58;;;;;;;0.55;0.38;;;17.70;70.40;17.80;100710.00;;;;4955039;28;110786;-60
2022/07/27 05:06:24;;;;;;;0.35;0.30;;;17.70;70.20;17.80;100714.00;;;;4954300;28;108586;-61
2022/07/27 05:08:50;;;;;;;1.38;0.50;;;17.70;70.00;17.80;100703.00;;;;4955697;28;102355;-61
2022/07/27 05:11:15;;;;;;;0.65;0.47;;;17.70;70.00;17.80;100712.00;;;;4954940;28;118319;-61
2022/07/27 05:13:41;;;;;;;0.85;0.50;;;17.70;70.00;17.80;100716.00;;;;4955291;28;96448;-61
2022/07/27 05:16:10;;;;;;;0.22;0.22;;;17.70;70.00;17.90;100726.00;;;;4955912;28;87851;-61
2022/07/27 05:18:37;;;;;;;0.90;0.65;;;17.70;70.00;17.90;100721.00;;;;4954663;28;95942;-61
2022/07/27 05:21:05;;;;;;;0.47;0.30;;;17.70;70.00;17.90;100730.00;;;;4956185;28;89123;-60
2022/07/27 05:23:30;;;;;;;0.60;0.60;;;17.70;70.00;17.90;100732.00;;;;4937873;28;88066;-62
2022/07/27 05:25:56;;;;;;;6.15;0.38;;;17.70;70.10;18.00;100744.00;;;;4954526;28;96766;-61
2022/07/27 05:28:22;;;;;;;1.13;0.50;;;17.80;70.20;18.00;100746.00;;;;4954518;28;116597;-62
2022/07/27 05:30:48;;;;;;;0.98;0.63;;;17.80;70.30;18.00;100742.00;;;;4955495;28;87927;-63
2022/07/27 05:33:13;;;;;;;1.30;0.28;;;17.80;70.30;18.10;100746.00;;;;4953949;28;99912;-62
2022/07/27 05:35:39;;;;;;;2.63;0.50;;;17.90;70.50;18.10;100739.00;;;;4955648;28;109322;-62
2022/07/27 05:38:04;;;;;;;2.45;0.77;;;17.90;70.50;18.10;100745.00;;;;4954481;28;119276;-63
2022/07/27 05:40:30;;;;;;;1.02;0.63;;;18.00;70.50;18.20;100752.00;;;;4953394;28;117592;-63
2022/07/27 05:42:56;;;;;;;0.20;0.20;;;18.00;70.50;18.20;100757.00;;;;4954734;28;88569;-62
2022/07/27 05:45:22;;;;;;;0.35;0.30;;;18.00;70.40;18.20;100760.00;;;;4956052;28;88011;-64
2022/07/27 05:47:48;;;;;;;0.40;0.40;;;18.10;70.40;18.30;100767.00;;;;4954624;28;102512;-63
2022/07/27 05:50:15;;;;;;;1.02;0.60;;;18.10;70.40;18.30;100765.00;;;;4954573;28;117367;-62
2022/07/27 05:52:42;;;;;;;0.52;0.52;;;18.10;70.40;18.30;100767.00;;;;4954317;28;97434;-62
2022/07/27 05:55:08;;;;;;;0.57;0.45;;;18.10;70.20;18.40;100771.00;;;;4955136;28;87950;-63
2022/07/27 05:57:35;;;;;;;0.80;0.40;;;18.20;70.10;18.40;100775.00;;;;4935980;28;109388;-62
2022/07/27 06:00:00;;;;;;;2.28;0.75;;;18.20;69.90;18.50;100780.00;;;;4954577;28;101183;-62
2022/07/27 06:02:29;;;;;;;1.45;0.57;;;18.30;69.90;18.50;100776.00;;;;4953318;28;87808;-63
2022/07/27 06:04:54;;;;;;;1.75;0.65;;;18.30;69.70;18.50;100787.00;;;;4954451;28;88081;-62
2022/07/27 06:10:06;;;;;;;0.68;0.28;;;18.40;69.50;18.60;100789.00;;;;4953891;28;88438;-62
2022/07/27 06:12:40;;;;;;;0.95;0.68;;;18.40;69.40;18.60;100795.00;;;;4953886;28;96199;-63
2022/07/27 06:15:08;;;;;;;0.45;0.20;;;18.40;69.40;18.70;100802.00;;;;4955103;28;100772;-63
2022/07/27 06:17:35;;;;;;;0.65;0.57;;;18.40;69.50;18.70;100796.00;;;;4955042;28;88806;-63
2022/07/27 06:20:03;;;;;;;1.67;0.77;;;18.50;69.30;18.80;100796.00;;;;4954921;28;88811;-62
2022/07/27 06:22:30;;;;;;;1.55;0.65;;;18.60;69.20;18.80;100801.00;;;;4954222;28;90332;-62
2022/07/27 06:24:56;;;;;;;1.60;0.55;;;18.60;69.20;18.80;100802.00;;;;4954550;28;87076;-62
2022/07/27 06:27:22;;;;;;;0.82;0.38;;;18.60;69.00;18.80;100808.00;;;;4953388;28;116228;-62
2022/07/27 06:29:47;;;;;;;0.17;0.10;;;18.60;68.90;18.80;100805.00;;;;4954385;28;88031;-62
2022/07/27 06:32:13;;;;;;;0.20;0.20;;;18.60;68.90;18.80;100806.00;;;;4952953;28;110011;-62
2022/07/27 06:34:39;;;;;;;0.30;0.30;;;18.60;68.80;18.80;100809.00;;;;4953690;28;108353;-62
2022/07/27 06:37:04;;;;;;;0.73;0.32;;;18.60;68.70;18.80;100810.00;;;;4952827;28;117448;-63
2022/07/27 06:39:30;;;;;;;1.40;0.57;;;18.60;68.60;18.70;100821.00;;;;4953259;28;117247;-62
2022/07/27 06:41:56;;;;;;;0.40;0.40;;;18.50;68.50;18.70;100815.00;;;;4953417;28;110909;-63
2022/07/27 06:44:21;;;;;;;1.05;0.65;;;18.50;68.60;18.60;100814.00;;;;4935129;28;108996;-62
2022/07/27 06:46:47;;;;;;;0.45;0.43;;;18.40;68.60;18.60;100814.00;;;;4953409;28;115837;-62
2022/07/27 06:49:13;;;;;;;1.27;0.75;;;18.50;68.70;18.60;100807.00;;;;4953870;28;117058;-62
2022/07/27 06:51:39;;;;;;;0.28;0.28;;;18.40;68.60;18.60;100806.00;;;;4955133;28;110749;-62
2022/07/27 06:54:05;;;;;;;0.40;0.30;;;18.40;68.60;18.60;100811.00;;;;4956366;28;102282;-62
2022/07/27 06:56:31;;;;;;;2.25;0.30;;;18.80;68.90;18.60;100807.00;;;;4954535;28;120062;-62
2022/07/27 06:58:57;;;;;;;1.30;0.52;;;18.40;68.70;18.70;100809.00;;;;4957419;28;89546;-62
2022/07/27 07:01:23;;;;;;;0.20;0.20;;;18.50;68.60;18.70;100816.00;;;;4956552;28;111291;-61
2022/07/27 07:03:49;;;;;;;1.35;0.55;;;18.50;68.60;18.70;100820.00;;;;4939172;28;87716;-61
2022/07/27 07:06:14;;;;;;;1.15;0.35;;;18.50;68.60;18.80;100817.00;;;;4957803;28;88100;-61
2022/07/27 07:08:40;;;;;;;0.40;0.40;;;18.50;68.40;18.80;100818.00;;;;4956092;28;118279;-61
2022/07/27 07:11:06;;;;;;;0.20;0.20;;;18.60;68.40;18.90;100820.00;;;;4956687;28;109734;-61
2022/07/27 07:13:32;;;;;;;3.65;0.45;;;18.60;68.20;18.90;100822.00;;;;4958602;28;87403;-62
2022/07/27 07:15:58;;;;;;;0.40;0.40;;;18.80;68.20;18.90;100826.00;;;;4957679;28;88805;-62
2022/07/27 07:18:23;;;;;;;0.40;0.40;;;18.70;67.90;19.00;100817.00;;;;4956399;28;88800;-62
2022/07/27 07:20:49;;;;;;;0.17;0.13;;;18.70;67.90;19.00;100810.00;;;;4957213;28;88666;-62
2022/07/27 07:23:15;;;;;;;1.80;0.35;;;18.80;67.90;19.00;100821.00;;;;4957126;28;88329;-62
2022/07/27 07:25:41;;;;;;;0.35;0.32;;;18.80;67.70;19.00;100813.00;;;;4955885;28;116553;-62
2022/07/27 07:28:07;;;;;;;0.70;0.45;;;18.80;67.70;19.00;100812.00;;;;4956310;28;107765;-63
2022/07/27 07:30:33;;;;;;;0.30;0.30;;;18.80;67.70;19.10;100814.00;;;;4938218;28;100857;-63
2022/07/27 07:32:59;;;;;;;0.40;0.30;;;18.90;67.70;19.10;100809.00;;;;4957255;28;87887;-63
2022/07/27 07:35:25;;;;;;;0.65;0.40;;;18.90;67.50;19.10;100812.00;;;;4956173;28;88367;-63
2022/07/27 07:37:51;;;;;;;0.55;0.40;;;18.80;67.30;19.00;100825.00;;;;4955674;28;115291;-62
2022/07/27 07:40:18;;;;;;;0.95;0.38;;;18.80;67.30;19.10;100817.00;;;;4957763;28;87962;-62
2022/07/27 07:42:59;;;;;;;0.30;0.30;;;18.90;67.30;19.10;100820.00;;;;4957053;28;87652;-62
2022/07/27 07:45:28;;;;;;;0.60;0.60;;;18.90;67.30;19.20;100820.00;;;;4956578;28;89426;-62
2022/07/27 07:47:54;;;;;;;1.48;0.60;;;19.00;67.30;19.30;100821.00;;;;4956734;28;92278;-63
2022/07/27 07:50:20;;;;;;;0.50;0.50;;;19.00;67.20;19.30;100830.00;;;;4956912;28;88115;-61
2022/07/27 07:52:51;;;;;;;0.52;0.22;;;19.10;67.10;19.30;100829.00;;;;4957265;28;87676;-63
2022/07/27 07:55:22;;;;;;;1.10;0.30;;;19.10;67.00;19.40;100835.00;;;;4955987;28;109563;-62
2022/07/27 07:57:48;;;;;;;0.82;0.45;;;19.10;66.90;19.40;100830.00;;;;4956585;28;88854;-63
2022/07/27 08:00:15;;;;;;;0.70;0.60;;;19.20;67.00;19.40;100831.00;;;;4953698;28;87727;-62
2022/07/27 08:02:49;;;;;;;1.02;0.65;;;19.20;66.80;19.40;100827.00;;;;4948180;28;87168;-62
2022/07/27 08:05:16;;;;;;;0.80;0.43;;;19.20;66.80;19.30;100830.00;;;;4955966;28;88797;-63
2022/07/27 08:07:43;;;;;;;2.20;0.45;;;19.10;66.50;19.40;100833.00;;;;4957067;28;87889;-63
2022/07/27 08:10:12;;;;;;;0.25;0.22;;;19.10;66.50;19.40;100833.00;;;;4955708;28;89004;-62
2022/07/27 08:12:41;;;;;;;0.35;0.35;;;19.10;66.50;19.40;100835.00;;;;4956368;28;90926;-63
2022/07/27 08:15:08;;;;;;;0.52;0.45;;;19.20;66.40;19.40;100839.00;;;;4929750;28;88648;-62
2022/07/27 08:17:34;;;;;;;0.20;0.13;;;19.10;66.20;19.40;100844.00;;;;4957067;28;88825;-63
2022/07/27 08:20:00;;;;;;;0.43;0.43;;;19.20;66.20;19.50;100835.00;;;;4956061;28;87916;-63
2022/07/27 08:22:26;;;;;;;0.25;0.25;;;19.20;66.00;19.60;100832.00;;;;4955256;28;105856;-63
2022/07/27 08:24:52;;;;;;;0.52;0.22;;;19.30;65.70;19.70;100838.00;;;;4956597;28;89056;-63
2022/07/27 08:27:18;;;;;;;0.75;0.32;;;19.40;65.70;19.90;100835.00;;;;4955491;28;117629;-62
2022/07/27 08:29:43;;;;;;;3.70;0.50;;;19.60;65.50;20.20;100832.00;;;;4954969;28;108443;-63
2022/07/27 08:32:09;;;;;;;0.30;0.30;;;19.80;64.70;20.40;100837.00;;;;4956129;28;106898;-63
2022/07/27 08:34:35;;;;;;;2.47;0.22;;;20.00;64.20;20.60;100831.00;;;;4955230;28;89193;-63
2022/07/27 08:37:01;;;;;;;1.95;0.30;;;20.20;63.80;20.80;100839.00;;;;4954976;28;100439;-64
2022/07/27 08:39:26;;;;;;;1.27;0.60;;;20.40;63.50;21.00;100832.00;;;;4956328;28;109546;-64
2022/07/27 08:41:53;;;;;;;0.40;0.40;;;20.60;63.00;21.20;100844.00;;;;4954874;28;109109;-63
2022/07/27 08:44:23;;;;;;;0.30;0.30;;;20.80;61.50;21.30;100839.00;;;;4956059;28;88734;-63
2022/07/27 08:46:50;;;;;;;0.70;0.50;;;20.90;61.10;21.40;100834.00;;;;4937972;28;87670;-62
2022/07/27 08:49:17;;;;;;;0.45;0.40;;;21.00;61.00;21.60;100843.00;;;;4955423;28;101835;-64
2022/07/27 08:51:43;;;;;;;2.53;0.35;;;21.20;60.40;21.70;100850.00;;;;4955609;28;86838;-63
2022/07/27 08:54:09;;;;;;;0.25;0.25;;;21.40;60.10;21.80;100850.00;;;;4954700;28;117740;-63
2022/07/27 08:56:36;;;;;;;0.30;0.30;;;21.40;59.50;21.80;100847.00;;;;4954331;28;117900;-63
2022/07/27 08:59:03;;;;;;;0.20;0.20;;;21.50;59.80;21.90;100836.00;;;;4955286;28;95588;-63
2022/07/27 09:01:31;;;;;;;0.63;0.17;;;21.60;58.70;21.90;100846.00;;;;4955581;28;87887;-63
2022/07/27 09:03:58;;;;;;;0.52;0.30;;;21.60;58.00;21.90;100843.00;;;;4955105;28;88077;-62
2022/07/27 09:06:47;;;;;;;0.10;0.10;;;21.60;57.90;22.00;100847.00;;;;4955351;28;109824;-64
2022/07/27 09:09:17;;;;;;;1.27;0.30;;;21.70;57.90;22.10;100834.00;;;;4956424;28;87841;-63
2022/07/27 09:12:02;;;;;;;0.30;0.28;;;21.80;57.30;22.20;100839.00;;;;4955935;28;94381;-63
2022/07/27 09:14:34;;;;;;;1.20;0.15;;;21.80;57.10;22.30;100839.00;;;;4954150;28;109590;-64
2022/07/27 09:17:24;;;;;;;0.45;0.28;;;22.80;57.30;22.50;100845.00;;;;4936279;28;93671;-62
2022/07/27 09:20:06;;;;;;;0.28;0.28;;;22.10;56.30;22.50;100834.00;;;;4945260;28;87939;-64
2022/07/27 09:22:54;;;;;;;0.20;0.20;;;22.20;55.80;22.60;100843.00;;;;4955659;28;87644;-63
2022/07/27 09:25:29;;;;;;;0.30;0.30;;;22.30;55.30;22.70;100844.00;;;;4954674;28;88971;-64
2022/07/27 09:27:57;;;;;;;1.75;0.50;;;22.40;55.40;22.80;100846.00;;;;4955667;28;89687;-64
2022/07/27 09:30:24;;;;;;;0.30;0.20;;;22.50;55.30;22.90;100835.00;;;;4954722;28;87923;-63
2022/07/27 09:33:04;;;;;;;0.40;0.28;;;22.60;54.50;22.90;100823.00;;;;4937603;28;87905;-62
2022/07/27 09:35:34;;;;;;;0.30;0.30;;;22.60;54.40;22.90;100831.00;;;;4954278;28;87970;-63
2022/07/27 09:38:21;;;;;;;3.20;0.52;;;22.60;54.10;22.90;100836.00;;;;4944852;28;90528;-63
2022/07/27 09:40:59;;;;;;;0.60;0.30;;;22.60;53.50;22.80;100836.00;;;;4955173;28;87597;-64
2022/07/27 09:43:25;;;;;;;0.68;0.40;;;22.60;53.00;22.80;100836.00;;;;4956473;28;86934;-63
2022/07/27 09:45:52;;;;;;;0.60;0.20;;;22.50;53.40;22.90;100829.00;;;;4954518;28;88735;-64
2022/07/27 09:48:21;;;;;;;0.55;0.30;;;22.60;53.70;23.10;100838.00;;;;4936766;28;87816;-64
2022/07/27 09:51:02;;;;;;;0.65;0.10;;;22.70;53.40;23.10;100837.00;;;;4954209;28;88653;-63
2022/07/27 09:53:31;;;;;;;0.00;0.00;;;22.70;52.70;22.90;100827.00;;;;4954977;28;97805;-65
2022/07/27 09:56:01;;;;;;;0.10;0.10;;;22.70;52.10;22.80;100825.00;;;;4954456;28;87530;-62
2022/07/27 09:58:48;;;;;;;0.68;0.22;;;22.60;52.30;22.90;100834.00;;;;4955353;28;87882;-62
2022/07/27 10:01:22;;;;;;;0.28;0.28;;;22.60;53.00;23.20;100844.00;;;;4953406;28;88052;-63
2022/07/27 10:03:54;;;;;;;0.20;0.10;;;22.80;52.90;23.40;100831.00;;;;4955395;28;87715;-63
2022/07/27 10:06:21;;;;;;;1.67;1.00;;;23.00;51.60;23.40;100839.00;;;;4952361;28;88682;-64
2022/07/27 10:08:50;;;;;;;0.73;0.40;;;23.10;50.90;23.40;100843.00;;;;4955650;28;87895;-63
2022/07/27 10:11:18;;;;;;;0.22;0.22;;;23.10;50.50;23.60;100834.00;;;;4937443;28;87494;-64
2022/07/27 10:13:46;;;;;;;0.30;0.20;;;23.20;51.00;23.80;100832.00;;;;4954729;28;87693;-64
2022/07/27 10:16:19;;;;;;;0.50;0.20;;;23.40;50.30;23.80;100826.00;;;;4954497;28;93348;-64
2022/07/27 10:19:04;;;;;;;0.80;0.20;;;23.50;49.80;23.90;100831.00;;;;4954904;28;88899;-63
2022/07/27 10:21:32;;;;;;;0.75;0.60;;;23.50;50.00;23.90;100827.00;;;;4951535;28;88119;-64
2022/07/27 10:24:03;;;;;;;0.20;0.20;;;23.60;49.70;24.00;100832.00;;;;4954118;28;100620;-64
2022/07/27 10:26:35;;;;;;;0.32;0.25;;;23.70;50.00;24.10;100835.00;;;;4956055;28;88273;-64
2022/07/27 10:29:04;;;;;;;0.20;0.20;;;23.70;49.50;24.10;100833.00;;;;4957638;28;87918;-64
2022/07/27 10:31:37;;;;;;;1.40;0.25;;;23.80;49.60;24.20;100821.00;;;;4957919;28;87823;-64
2022/07/27 10:34:05;;;;;;;0.63;0.17;;;23.80;49.40;24.10;100822.00;;;;4958218;28;88255;-64
2022/07/27 10:36:31;;;;;;;0.32;0.15;;;23.80;48.50;24.00;100820.00;;;;4957627;28;87960;-63
2022/07/27 10:39:03;;;;;;;0.47;0.32;;;23.70;48.60;23.90;100827.00;;;;4958000;28;88291;-63
2022/07/27 10:41:39;;;;;;;0.20;0.17;;;23.60;48.90;24.10;100818.00;;;;4958167;28;88984;-64
2022/07/27 10:44:15;;;;;;;1.27;0.30;;;23.70;49.30;24.50;100822.00;;;;4957539;28;95654;-64
2022/07/27 10:46:50;;;;;;;0.43;0.30;;;24.00;49.10;24.80;100828.00;;;;4957869;28;88920;-64
2022/07/27 10:49:28;;;;;;;0.20;0.20;;;24.30;48.50;25.10;100809.00;;;;4957716;28;89311;-65
2022/07/27 10:51:56;;;;;;;0.50;0.47;;;24.50;47.90;25.60;100810.00;;;;4958131;28;87795;-64
2022/07/27 10:54:35;;;;;;;0.52;0.45;;;24.90;48.00;25.80;100810.00;;;;4939572;28;88764;-64